createdAt,value
2018-05-27T00:01:33.715Z,6.87
2018-05-27T00:04:02.019Z,8.37
2018-05-27T00:06:30.334Z,8.97
2018-05-27T00:08:59.675Z,9.00
2018-05-27T00:11:28.480Z,7.70
2018-05-27T00:13:56.782Z,7.80
2018-05-27T00:16:25.867Z,7.67
2018-05-27T00:18:54.157Z,7.57
2018-05-27T00:21:23.244Z,7.67
2018-05-27T00:23:51.550Z,7.57
2018-05-27T00:26:19.897Z,6.93
2018-05-27T00:28:48.193Z,7.80
2018-05-27T00:31:17.283Z,7.43
2018-05-27T00:33:45.595Z,8.30
2018-05-27T00:36:13.902Z,8.07
2018-05-27T00:38:42.965Z,7.73
2018-05-27T00:41:11.288Z,7.73
2018-05-27T00:43:39.942Z,7.73
2018-05-27T00:46:08.250Z,8.43
2018-05-27T00:48:36.536Z,8.17
2018-05-27T00:51:05.638Z,8.33
2018-05-27T00:53:52.486Z,8.50
2018-05-27T00:56:20.814Z,8.77
2018-05-27T00:58:49.896Z,9.17
2018-05-27T01:01:18.192Z,8.50
2018-05-27T01:03:47.240Z,8.10
2018-05-27T01:06:15.535Z,8.30
2018-05-27T01:08:44.602Z,7.90
2018-05-27T01:11:12.917Z,8.77
2018-05-27T01:13:41.723Z,8.43
2018-05-27T01:16:10.819Z,8.37
2018-05-27T01:18:40.553Z,8.73
2018-05-27T01:21:08.866Z,8.07
2018-05-27T01:23:37.152Z,8.27
2018-05-27T01:26:05.468Z,7.90
2018-05-27T01:28:33.921Z,8.33
2018-05-27T01:31:02.240Z,8.30
2018-05-27T01:33:30.541Z,8.00
2018-05-27T01:35:58.872Z,8.30
2018-05-27T01:38:27.938Z,9.03
2018-05-27T01:40:56.247Z,8.47
2018-05-27T01:43:25.322Z,8.87
2018-05-27T01:45:54.390Z,8.43
2018-05-27T01:48:22.697Z,8.40
2018-05-27T01:50:51.759Z,8.60
2018-05-27T01:53:20.060Z,8.83
2018-05-27T01:55:48.367Z,8.10
2018-05-27T01:58:16.690Z,7.93
2018-05-27T02:00:45.074Z,9.10
2018-05-27T02:03:13.387Z,8.43
2018-05-27T02:05:43.182Z,9.20
2018-05-27T02:08:13.311Z,9.37
2018-05-27T02:10:46.812Z,9.23
2018-05-27T02:13:15.271Z,9.23
2018-05-27T02:15:43.641Z,9.90
2018-05-27T02:18:11.941Z,9.07
2018-05-27T02:20:41.009Z,8.87
2018-05-27T02:23:09.313Z,8.97
2018-05-27T02:25:38.945Z,9.20
2018-05-27T02:28:07.248Z,9.00
2018-05-27T02:30:35.557Z,10.03
2018-05-27T02:33:03.861Z,9.00
2018-05-27T02:35:32.261Z,10.20
2018-05-27T02:38:00.575Z,9.77
2018-05-27T02:40:29.227Z,10.00
2018-05-27T02:42:57.532Z,9.50
2018-05-27T02:45:25.839Z,10.60
2018-05-27T02:47:54.154Z,10.10
2018-05-27T02:50:22.448Z,10.97
2018-05-27T02:52:50.762Z,13.00
2018-05-27T02:55:19.828Z,12.97
2018-05-27T02:57:48.150Z,12.17
2018-05-27T03:00:16.461Z,12.40
2018-05-27T03:02:44.775Z,13.23
2018-05-27T03:05:13.853Z,13.10
2018-05-27T03:07:42.199Z,13.57
2018-05-27T03:10:10.519Z,13.77
2018-05-27T03:12:39.300Z,13.50
2018-05-27T03:15:07.612Z,13.63
2018-05-27T03:17:35.924Z,13.57
2018-05-27T03:20:04.238Z,14.93
2018-05-27T03:22:32.620Z,14.00
2018-05-27T03:25:01.703Z,13.00
2018-05-27T03:27:30.009Z,13.43
2018-05-27T03:29:59.073Z,14.43
2018-05-27T03:32:27.389Z,13.63
2018-05-27T03:34:55.694Z,13.20
2018-05-27T03:37:24.018Z,12.47
2018-05-27T03:39:53.083Z,13.57
2018-05-27T03:42:21.397Z,14.37
2018-05-27T03:44:50.471Z,13.47
2018-05-27T03:47:18.802Z,13.90
2018-05-27T03:49:47.124Z,14.00
2018-05-27T03:52:15.441Z,13.97
2018-05-27T03:54:44.340Z,13.27
2018-05-27T03:57:12.665Z,13.70
2018-05-27T03:59:40.971Z,12.20
2018-05-27T04:02:10.036Z,12.17
2018-05-27T04:05:05.889Z,12.77
2018-05-27T04:07:51.929Z,12.90
2018-05-27T04:10:20.237Z,12.97
2018-05-27T04:12:49.339Z,13.13
2018-05-27T04:15:18.403Z,13.27
2018-05-27T04:17:46.723Z,13.17
2018-05-27T04:20:15.020Z,12.97
2018-05-27T04:22:43.414Z,12.40
2018-05-27T04:25:11.715Z,12.87
2018-05-27T04:27:41.051Z,12.50
2018-05-27T04:30:09.371Z,12.77
2018-05-27T04:32:37.688Z,12.90
2018-05-27T04:35:06.763Z,12.77
2018-05-27T04:37:35.114Z,12.70
2018-05-27T04:40:03.430Z,12.40
2018-05-27T04:42:31.733Z,11.63
2018-05-27T04:45:00.058Z,11.33
2018-05-27T04:47:28.404Z,10.70
2018-05-27T04:49:57.449Z,10.60
2018-05-27T04:52:26.522Z,10.17
2018-05-27T04:54:54.843Z,10.03
2018-05-27T04:57:23.919Z,9.70
2018-05-27T04:59:52.238Z,10.20
2018-05-27T05:02:20.550Z,10.17
2018-05-27T05:04:48.852Z,9.67
2018-05-27T05:07:17.152Z,9.77
2018-05-27T05:09:45.664Z,9.33
2018-05-27T05:12:13.948Z,9.53
2018-05-27T05:14:42.258Z,9.13
2018-05-27T05:17:11.341Z,9.17
2018-05-27T05:19:39.634Z,9.07
2018-05-27T05:22:08.729Z,8.53
2018-05-27T05:24:38.035Z,8.73
2018-05-27T05:27:07.126Z,8.03
2018-05-27T05:29:36.212Z,8.30
2018-05-27T05:32:05.352Z,7.47
2018-05-27T05:34:33.760Z,7.73
2018-05-27T05:37:02.064Z,7.57
2018-05-27T05:39:31.150Z,7.63
2018-05-27T05:42:00.222Z,7.47
2018-05-27T05:44:28.531Z,6.93
2018-05-27T05:46:57.593Z,7.17
2018-05-27T05:49:26.679Z,7.80
2018-05-27T05:51:55.749Z,7.53
2018-05-27T05:54:24.127Z,7.90
2018-05-27T05:56:52.444Z,7.63
2018-05-27T05:59:20.742Z,7.30
2018-05-27T06:01:50.304Z,8.03
2018-05-27T06:04:18.609Z,6.03
2018-05-27T06:06:46.895Z,7.10
2018-05-27T06:09:16.006Z,6.40
2018-05-27T06:11:45.074Z,6.60
2018-05-27T06:14:13.389Z,6.33
2018-05-27T06:16:41.701Z,5.73
2018-05-27T06:19:10.009Z,6.40
2018-05-27T06:21:39.914Z,6.43
2018-05-27T06:24:08.240Z,5.93
2018-05-27T06:26:36.529Z,6.37
2018-05-27T06:29:04.870Z,5.90
2018-05-27T06:31:33.361Z,6.00
2018-05-27T06:34:01.694Z,6.17
2018-05-27T06:36:30.039Z,5.53
2018-05-27T06:38:58.378Z,5.90
2018-05-27T06:41:27.440Z,5.80
2018-05-27T06:43:55.760Z,5.60
2018-05-27T06:46:24.052Z,5.60
2018-05-27T06:48:53.014Z,5.40
2018-05-27T06:51:22.096Z,5.70
2018-05-27T06:53:50.617Z,5.60
2018-05-27T06:56:19.005Z,5.00
2018-05-27T06:58:47.346Z,5.60
2018-05-27T07:01:16.481Z,5.20
2018-05-27T07:03:44.815Z,5.53
2018-05-27T07:06:13.982Z,5.17
2018-05-27T07:08:42.289Z,5.43
2018-05-27T07:11:11.363Z,4.87
2018-05-27T07:13:39.925Z,5.13
2018-05-27T07:16:08.223Z,5.10
2018-05-27T07:18:36.724Z,4.67
2018-05-27T07:21:05.864Z,4.97
2018-05-27T07:23:34.173Z,4.67
2018-05-27T07:26:02.488Z,5.10
2018-05-27T07:28:31.419Z,4.70
2018-05-27T07:30:59.729Z,4.40
2018-05-27T07:33:28.807Z,4.47
2018-05-27T07:35:57.106Z,8.37
2018-05-27T07:38:26.923Z,6.03
2018-05-27T07:40:56.161Z,4.57
2018-05-27T07:43:24.485Z,3.40
2018-05-27T07:45:53.720Z,2.93
2018-05-27T07:48:22.017Z,3.20
2018-05-27T07:50:50.329Z,2.90
2018-05-27T07:53:19.401Z,3.10
2018-05-27T07:55:47.698Z,3.00
2018-05-27T07:58:16.001Z,2.80
2018-05-27T08:00:44.331Z,3.40
2018-05-27T08:03:12.650Z,3.03
2018-05-27T08:05:40.969Z,3.53
2018-05-27T08:08:09.261Z,3.40
2018-05-27T08:10:37.591Z,3.67
2018-05-27T08:13:05.892Z,3.60
2018-05-27T08:15:34.990Z,3.77
2018-05-27T08:18:03.290Z,3.50
2018-05-27T08:20:31.594Z,3.70
2018-05-27T08:23:00.645Z,3.80
2018-05-27T08:25:28.967Z,3.60
2018-05-27T08:27:58.604Z,3.87
2018-05-27T08:30:26.917Z,3.93
2018-05-27T08:32:55.230Z,3.63
2018-05-27T08:35:24.305Z,3.70
2018-05-27T08:37:53.378Z,4.20
2018-05-27T08:40:21.698Z,4.03
2018-05-27T08:42:49.997Z,4.23
2018-05-27T08:45:18.301Z,3.50
2018-05-27T08:47:46.593Z,3.67
2018-05-27T08:50:14.906Z,3.87
2018-05-27T08:52:43.213Z,4.60
2018-05-27T08:55:11.587Z,4.50
2018-05-27T08:57:40.172Z,3.83
2018-05-27T09:00:08.484Z,4.30
2018-05-27T09:02:36.771Z,3.70
2018-05-27T09:05:05.098Z,3.63
2018-05-27T09:07:33.493Z,4.27
2018-05-27T09:10:01.804Z,3.83
2018-05-27T09:12:30.881Z,4.20
2018-05-27T09:14:59.459Z,4.00
2018-05-27T09:17:27.794Z,4.10
2018-05-27T09:19:56.103Z,4.30
2018-05-27T09:22:24.399Z,4.50
2018-05-27T09:24:52.735Z,4.17
2018-05-27T09:27:21.768Z,4.10
2018-05-27T09:29:50.065Z,4.20
2018-05-27T09:32:19.153Z,3.90
2018-05-27T09:34:48.206Z,4.20
2018-05-27T09:37:16.498Z,4.40
2018-05-27T09:39:44.807Z,4.27
2018-05-27T09:42:13.876Z,3.87
2018-05-27T09:44:42.200Z,3.93
2018-05-27T09:47:10.531Z,3.90
2018-05-27T09:49:38.837Z,3.70
2018-05-27T09:52:07.133Z,3.90
2018-05-27T09:54:35.443Z,4.50
2018-05-27T09:57:03.738Z,4.33
2018-05-27T09:59:32.036Z,4.20
2018-05-27T10:02:01.779Z,4.03
2018-05-27T10:04:30.183Z,4.00
2018-05-27T10:06:58.500Z,3.93
2018-05-27T10:09:27.566Z,3.97
2018-05-27T10:11:55.916Z,4.20
2018-05-27T10:14:24.214Z,4.00
2018-05-27T10:16:52.829Z,4.40
2018-05-27T10:19:21.253Z,4.07
2018-05-27T10:21:49.655Z,3.83
2018-05-27T10:24:18.063Z,3.73
2018-05-27T10:26:47.127Z,4.00
2018-05-27T10:29:15.954Z,4.20
2018-05-27T10:31:44.260Z,4.37
2018-05-27T10:34:12.629Z,4.53
2018-05-27T10:36:41.614Z,4.37
2018-05-27T10:39:09.943Z,4.07
2018-05-27T10:41:38.261Z,4.70
2018-05-27T10:44:06.571Z,4.40
2018-05-27T10:46:34.954Z,4.80
2018-05-27T10:49:04.435Z,5.13
2018-05-27T10:51:32.803Z,4.40
2018-05-27T10:54:01.105Z,5.20
2018-05-27T10:56:29.406Z,4.13
2018-05-27T10:58:57.776Z,4.30
2018-05-27T11:01:26.550Z,4.90
2018-05-27T11:03:54.892Z,5.20
2018-05-27T11:06:23.272Z,5.13
2018-05-27T11:08:51.593Z,4.90
2018-05-27T11:11:19.921Z,4.60
2018-05-27T11:13:48.218Z,4.00
2018-05-27T11:16:16.541Z,4.00
2018-05-27T11:18:44.863Z,3.43
2018-05-27T11:21:13.165Z,4.60
2018-05-27T11:23:41.467Z,4.87
2018-05-27T11:26:09.780Z,4.73
2018-05-27T11:28:38.139Z,4.30
2018-05-27T11:31:07.890Z,5.10
2018-05-27T11:33:36.183Z,5.20
2018-05-27T11:36:04.497Z,5.17
2018-05-27T11:38:33.887Z,5.00
2018-05-27T11:41:02.979Z,5.73
2018-05-27T11:43:31.851Z,5.00
2018-05-27T11:46:00.157Z,5.57
2018-05-27T11:48:29.239Z,5.33
2018-05-27T11:50:58.173Z,5.20
2018-05-27T11:53:26.604Z,5.23
2018-05-27T11:55:54.930Z,5.30
2018-05-27T11:58:23.246Z,6.00
2018-05-27T12:00:51.554Z,4.90
2018-05-27T12:03:20.629Z,5.27
2018-05-27T12:05:48.944Z,4.87
2018-05-27T12:08:17.500Z,5.07
2018-05-27T12:10:45.891Z,5.00
2018-05-27T12:13:15.277Z,4.43
2018-05-27T12:15:45.425Z,4.57
2018-05-27T12:18:15.003Z,4.20
2018-05-27T12:20:44.709Z,4.47
2018-05-27T12:23:17.039Z,4.60
2018-05-27T12:25:46.207Z,4.17
2018-05-27T12:28:16.168Z,4.47
2018-05-27T12:30:46.019Z,4.50
2018-05-27T12:33:15.209Z,5.03
2018-05-27T12:35:47.081Z,4.63
2018-05-27T12:38:17.211Z,4.50
2018-05-27T12:40:45.529Z,4.17
2018-05-27T12:43:13.891Z,4.20
2018-05-27T12:45:42.270Z,4.30
2018-05-27T12:48:11.237Z,3.67
2018-05-27T12:50:39.556Z,3.87
2018-05-27T12:53:07.877Z,4.07
2018-05-27T12:55:36.294Z,3.70
2018-05-27T12:58:04.615Z,4.10
2018-05-27T13:00:33.814Z,3.90
2018-05-27T13:03:02.135Z,3.90
2018-05-27T13:05:30.629Z,4.10
2018-05-27T13:07:58.952Z,3.77
2018-05-27T13:10:28.077Z,4.23
2018-05-27T13:12:57.450Z,4.10
2018-05-27T13:15:25.752Z,3.73
2018-05-27T13:17:54.090Z,4.30
2018-05-27T13:20:23.200Z,4.37
2018-05-27T13:22:52.283Z,3.50
2018-05-27T13:25:21.355Z,4.10
2018-05-27T13:27:49.672Z,4.37
2018-05-27T13:30:18.748Z,4.40
2018-05-27T13:32:47.819Z,3.70
2018-05-27T13:35:16.103Z,4.17
2018-05-27T13:37:44.413Z,4.13
2018-05-27T13:40:12.987Z,4.13
2018-05-27T13:42:42.211Z,4.20
2018-05-27T13:45:10.517Z,4.20
2018-05-27T13:47:38.850Z,3.33
2018-05-27T13:50:07.209Z,4.03
2018-05-27T13:52:35.664Z,4.07
2018-05-27T13:55:03.984Z,4.23
2018-05-27T13:57:32.414Z,4.10
2018-05-27T14:00:00.756Z,3.93
2018-05-27T14:02:29.106Z,4.47
2018-05-27T14:04:58.188Z,3.90
2018-05-27T14:07:27.289Z,4.47
2018-05-27T14:09:56.358Z,3.73
2018-05-27T14:12:24.676Z,3.93
2018-05-27T14:14:53.013Z,4.27
2018-05-27T14:17:22.093Z,4.20
2018-05-27T14:19:50.432Z,4.10
2018-05-27T14:22:18.745Z,4.00
2018-05-27T14:24:47.037Z,4.53
2018-05-27T14:27:15.624Z,4.30
2018-05-27T14:29:43.951Z,3.73
2018-05-27T14:32:12.254Z,4.03
2018-05-27T14:34:40.617Z,4.17
2018-05-27T14:37:08.972Z,3.63
2018-05-27T14:39:37.461Z,3.60
2018-05-27T14:42:05.794Z,4.17
2018-05-27T14:44:34.917Z,3.53
2018-05-27T14:47:03.223Z,4.27
2018-05-27T14:49:31.755Z,4.40
2018-05-27T14:52:00.828Z,4.20
2018-05-27T14:54:29.153Z,4.03
2018-05-27T14:56:57.445Z,4.03
2018-05-27T14:59:25.755Z,4.00
2018-05-27T15:01:54.067Z,3.80
2018-05-27T15:04:22.428Z,4.33
2018-05-27T15:06:51.288Z,4.20
2018-05-27T15:09:19.646Z,3.97
2018-05-27T15:11:47.952Z,5.50
2018-05-27T15:14:16.435Z,5.97
2018-05-27T15:16:44.734Z,4.60
2018-05-27T15:19:13.829Z,4.67
2018-05-27T15:21:42.958Z,3.80
2018-05-27T15:24:11.271Z,3.33
2018-05-27T15:26:39.565Z,3.50
2018-05-27T15:29:08.639Z,3.33
2018-05-27T15:31:37.017Z,3.70
2018-05-27T15:34:05.307Z,3.60
2018-05-27T15:36:33.610Z,3.40
2018-05-27T15:39:01.987Z,3.50
2018-05-27T15:41:31.064Z,3.27
2018-05-27T15:44:00.195Z,3.60
2018-05-27T15:46:28.493Z,3.17
2018-05-27T15:48:56.827Z,3.50
2018-05-27T15:51:25.680Z,3.53
2018-05-27T15:53:53.985Z,3.50
2018-05-27T15:56:22.360Z,3.90
2018-05-27T15:58:50.711Z,3.90
2018-05-27T16:01:19.275Z,3.80
2018-05-27T16:03:47.565Z,4.27
2018-05-27T16:06:15.872Z,4.07
2018-05-27T16:08:44.972Z,3.70
2018-05-27T16:11:13.266Z,4.03
2018-05-27T16:13:41.555Z,4.00
2018-05-27T16:16:09.861Z,4.20
2018-05-27T16:18:38.958Z,4.10
2018-05-27T16:21:07.299Z,3.70
2018-05-27T16:23:35.593Z,4.50
2018-05-27T16:26:03.943Z,4.00
2018-05-27T16:28:32.433Z,4.00
2018-05-27T16:31:00.741Z,4.00
2018-05-27T16:33:29.034Z,3.90
2018-05-27T16:35:57.380Z,4.17
2018-05-27T16:38:25.686Z,3.47
2018-05-27T16:40:54.069Z,4.00
2018-05-27T16:43:22.627Z,3.80
2018-05-27T16:45:50.930Z,4.30
2018-05-27T16:48:19.232Z,4.20
2018-05-27T16:50:47.539Z,4.03
2018-05-27T16:53:15.850Z,4.10
2018-05-27T16:55:44.167Z,4.57
2018-05-27T16:58:12.481Z,4.73
2018-05-27T17:00:41.027Z,4.27
2018-05-27T17:03:09.346Z,4.27
2018-05-27T17:05:37.664Z,4.07
2018-05-27T17:08:06.784Z,4.70
2018-05-27T17:10:35.224Z,4.80
2018-05-27T17:13:04.345Z,4.90
2018-05-27T17:15:32.666Z,5.10
2018-05-27T17:18:00.966Z,5.40
2018-05-27T17:20:30.050Z,5.47
2018-05-27T17:22:58.375Z,5.60
2018-05-27T17:25:26.704Z,5.80
2018-05-27T17:27:55.033Z,5.53
2018-05-27T17:30:23.511Z,5.70
2018-05-27T17:32:51.816Z,5.93
2018-05-27T17:35:20.237Z,6.77
2018-05-27T17:37:49.360Z,5.87
2018-05-27T17:40:17.689Z,6.20
2018-05-27T17:42:45.996Z,6.93
2018-05-27T17:45:15.069Z,6.30
2018-05-27T17:47:44.146Z,7.17
2018-05-27T17:50:12.470Z,7.00
2018-05-27T17:52:40.780Z,8.37
2018-05-27T17:55:09.105Z,7.53
2018-05-27T17:57:37.615Z,7.43
2018-05-27T18:00:06.064Z,7.47
2018-05-27T18:02:35.157Z,7.10
2018-05-27T18:05:05.111Z,7.77
2018-05-27T18:07:34.448Z,8.13
2018-05-27T18:10:02.782Z,7.87
2018-05-27T18:12:31.122Z,7.07
2018-05-27T18:15:00.237Z,8.13
2018-05-27T18:17:28.857Z,8.03
2018-05-27T18:19:58.039Z,8.43
2018-05-27T18:22:27.959Z,7.97
2018-05-27T18:24:56.346Z,8.77
2018-05-27T18:27:24.648Z,8.17
2018-05-27T18:29:52.992Z,7.80
2018-05-27T18:32:21.334Z,8.53
2018-05-27T18:34:50.413Z,8.37
2018-05-27T18:37:18.733Z,8.43
2018-05-27T18:39:47.024Z,7.67
2018-05-27T18:42:15.351Z,8.07
2018-05-27T18:44:44.434Z,8.13
2018-05-27T18:47:12.826Z,8.67
2018-05-27T18:49:41.872Z,8.03
2018-05-27T18:52:10.183Z,8.43
2018-05-27T18:54:38.781Z,9.10
2018-05-27T18:57:07.845Z,7.70
2018-05-27T18:59:36.956Z,7.93
2018-05-27T19:02:06.057Z,7.97
2018-05-27T19:04:35.319Z,7.73
2018-05-27T19:07:03.617Z,8.23
2018-05-27T19:09:31.939Z,7.20
2018-05-27T19:12:00.356Z,6.60
2018-05-27T19:14:28.727Z,7.90
2018-05-27T19:16:57.055Z,7.13
2018-05-27T19:19:25.399Z,6.93
2018-05-27T19:21:53.701Z,6.77
2018-05-27T19:24:22.802Z,6.43
2018-05-27T19:26:51.121Z,7.30
2018-05-27T19:29:19.408Z,7.10
2018-05-27T19:31:47.717Z,7.17
2018-05-27T19:34:16.023Z,7.00
2018-05-27T19:36:44.340Z,6.40
2018-05-27T19:39:12.639Z,7.37
2018-05-27T19:41:42.449Z,6.70
2018-05-27T19:44:10.794Z,7.60
2018-05-27T19:46:39.320Z,7.57
2018-05-27T19:49:08.423Z,7.20
2018-05-27T19:51:37.286Z,7.03
2018-05-27T19:54:05.610Z,8.13
2018-05-27T19:56:33.945Z,8.33
2018-05-27T19:59:02.265Z,8.70
2018-05-27T20:01:31.182Z,9.30
2018-05-27T20:03:59.497Z,9.27
2018-05-27T20:06:28.561Z,9.70
2018-05-27T20:08:56.881Z,9.40
2018-05-27T20:11:25.207Z,8.83
2018-05-27T20:13:54.279Z,8.17
2018-05-27T20:16:22.605Z,7.60
2018-05-27T20:18:51.684Z,7.70
2018-05-27T20:21:20.054Z,7.50
2018-05-27T20:23:48.404Z,7.70
2018-05-27T20:26:16.729Z,8.10
2018-05-27T20:28:45.805Z,7.57
2018-05-27T20:31:14.143Z,7.50
2018-05-27T20:33:42.678Z,7.53
2018-05-27T20:36:10.999Z,7.60
2018-05-27T20:38:39.892Z,7.37
2018-05-27T20:41:08.199Z,8.37
2018-05-27T20:43:36.694Z,7.50
2018-05-27T20:46:05.015Z,8.00
2018-05-27T20:48:33.440Z,7.60
2018-05-27T20:51:01.720Z,8.20
2018-05-27T20:53:30.028Z,7.97
2018-05-27T20:55:58.339Z,8.03
2018-05-27T20:58:26.670Z,7.97
2018-05-27T21:00:54.991Z,6.93
2018-05-27T21:03:23.363Z,7.73
2018-05-27T21:05:51.670Z,8.63
2018-05-27T21:08:19.985Z,8.70
2018-05-27T21:10:49.084Z,8.67
2018-05-27T21:13:18.147Z,8.37
2018-05-27T21:15:46.442Z,8.17
2018-05-27T21:18:15.517Z,7.97
2018-05-27T21:20:43.850Z,7.97
2018-05-27T21:23:12.198Z,9.17
2018-05-27T21:25:40.992Z,7.67
2018-05-27T21:28:09.350Z,8.67
2018-05-27T21:30:39.240Z,8.60
2018-05-27T21:33:09.650Z,8.97
2018-05-27T21:35:39.500Z,10.33
2018-05-27T21:38:07.968Z,9.87
2018-05-27T21:40:36.677Z,9.50
2018-05-27T21:43:05.753Z,9.83
2018-05-27T21:45:34.843Z,9.33
2018-05-27T21:48:03.168Z,9.13
2018-05-27T21:50:32.554Z,9.97
2018-05-27T21:53:00.868Z,9.73
2018-05-27T21:55:29.176Z,9.53
2018-05-27T21:57:57.502Z,9.47
2018-05-27T22:00:25.804Z,9.47
2018-05-27T22:02:54.146Z,9.27
2018-05-27T22:05:22.487Z,10.27
2018-05-27T22:07:50.812Z,9.17
2018-05-27T22:10:19.103Z,8.77
2018-05-27T22:12:47.420Z,9.40
2018-05-27T22:15:16.486Z,9.77
2018-05-27T22:17:45.065Z,9.40
2018-05-27T22:20:13.378Z,9.33
2018-05-27T22:22:42.452Z,9.60
2018-05-27T22:25:10.736Z,10.23
2018-05-27T22:27:39.789Z,9.43
2018-05-27T22:30:08.176Z,9.17
2018-05-27T22:32:36.486Z,9.87
2018-05-27T22:35:04.849Z,10.93
2018-05-27T22:37:33.388Z,11.40
2018-05-27T22:40:01.712Z,10.43
2018-05-27T22:42:30.042Z,12.47
2018-05-27T22:44:58.416Z,11.33
2018-05-27T22:47:26.748Z,10.00
2018-05-27T22:49:55.055Z,9.67
2018-05-27T22:52:23.367Z,10.70
2018-05-27T22:54:51.674Z,10.53
2018-05-27T22:57:19.968Z,12.00
2018-05-27T22:59:49.070Z,16.33
2018-05-27T23:02:18.153Z,14.87
2018-05-27T23:04:46.671Z,15.43
2018-05-27T23:07:15.005Z,15.30
2018-05-27T23:09:43.327Z,15.07
2018-05-27T23:12:11.650Z,15.30
2018-05-27T23:14:39.969Z,14.13
2018-05-27T23:17:08.310Z,12.80
2018-05-27T23:19:37.073Z,14.10
2018-05-27T23:22:05.379Z,12.80
2018-05-27T23:24:35.199Z,12.17
2018-05-27T23:27:04.286Z,13.03
2018-05-27T23:29:33.369Z,13.43
2018-05-27T23:32:01.712Z,13.87
2018-05-27T23:34:30.042Z,15.97
2018-05-27T23:37:00.177Z,13.97
2018-05-27T23:39:28.486Z,15.17
2018-05-27T23:41:56.784Z,14.27
2018-05-27T23:44:25.179Z,12.77
2018-05-27T23:46:53.486Z,11.67
2018-05-27T23:49:21.839Z,12.07
2018-05-27T23:51:51.085Z,11.37
2018-05-27T23:54:19.420Z,11.53
2018-05-27T23:56:48.558Z,13.97
2018-05-27T23:59:16.938Z,12.77
